CCC2 weather

Winterland Airport
Winterland, Newfoundland and Labrador, Canada

Public forecast

Using degrees Celsius for public forecast. Weather courtesy of forecast.io.

METAR (pilot weather report)

Closest report is St Pierre Airport, 41.2 nm (76.4 km) WSW. Retrieved 2019/09/23 14:00 UTC (20 minutes ago):

LFVP 231400Z 23022KT 9999 FEW010 BKN070 BKN250 15/13 Q1002 NOSIG

TAF (pilot weather forecast)

Closest forecast is St Pierre Airport, 41.2 nm (76.4 km) WSW. Retrieved 2019/09/23 12:00 UTC (2 hours ago):

TAF LFVP 231100Z 2312/2321 24020KT CAVOK BECMG 2312/2315 24025G35KT BKN023 BECMG 2319/2321 24020G30KT TEMPO 2319/2321 1800 -SHRA BR BKN005 OVC015